sensor_id;sensor_type;location;lat;lon;timestamp;P1;durP1;ratioP1;P2;durP2;ratioP2
22754;SDS011;11544;42.020;23.094;2023-06-14T00:02:17;6.60;;;5.40;;
22754;SDS011;11544;42.020;23.094;2023-06-14T00:04:44;7.13;;;5.53;;
22754;SDS011;11544;42.020;23.094;2023-06-14T00:07:12;7.85;;;6.05;;
22754;SDS011;11544;42.020;23.094;2023-06-14T00:09:40;9.95;;;5.60;;
22754;SDS011;11544;42.020;23.094;2023-06-14T00:12:07;10.38;;;6.88;;
22754;SDS011;11544;42.020;23.094;2023-06-14T00:14:35;10.48;;;5.80;;
22754;SDS011;11544;42.020;23.094;2023-06-14T00:17:02;7.35;;;5.63;;
22754;SDS011;11544;42.020;23.094;2023-06-14T00:19:29;7.18;;;5.03;;
22754;SDS011;11544;42.020;23.094;2023-06-14T00:21:59;10.63;;;6.28;;
22754;SDS011;11544;42.020;23.094;2023-06-14T00:24:26;12.23;;;5.88;;
22754;SDS011;11544;42.020;23.094;2023-06-14T00:26:53;6.55;;;5.82;;
22754;SDS011;11544;42.020;23.094;2023-06-14T00:29:21;6.95;;;5.85;;
22754;SDS011;11544;42.020;23.094;2023-06-14T00:31:48;8.77;;;5.93;;
22754;SDS011;11544;42.020;23.094;2023-06-14T00:34:15;7.90;;;5.40;;
22754;SDS011;11544;42.020;23.094;2023-06-14T00:36:42;7.70;;;5.60;;
22754;SDS011;11544;42.020;23.094;2023-06-14T00:39:09;7.90;;;5.15;;
22754;SDS011;11544;42.020;23.094;2023-06-14T00:41:36;5.80;;;4.55;;
22754;SDS011;11544;42.020;23.094;2023-06-14T00:44:04;6.47;;;5.40;;
22754;SDS011;11544;42.020;23.094;2023-06-14T00:46:30;6.65;;;5.00;;
22754;SDS011;11544;42.020;23.094;2023-06-14T00:48:58;8.10;;;5.35;;
22754;SDS011;11544;42.020;23.094;2023-06-14T00:51:27;8.00;;;4.85;;
22754;SDS011;11544;42.020;23.094;2023-06-14T00:53:54;7.82;;;5.13;;
22754;SDS011;11544;42.020;23.094;2023-06-14T00:56:21;9.50;;;5.93;;
22754;SDS011;11544;42.020;23.094;2023-06-14T00:58:50;7.68;;;5.35;;
22754;SDS011;11544;42.020;23.094;2023-06-14T01:01:17;10.23;;;5.10;;
22754;SDS011;11544;42.020;23.094;2023-06-14T01:03:44;8.82;;;5.45;;
22754;SDS011;11544;42.020;23.094;2023-06-14T01:06:19;11.98;;;5.35;;
22754;SDS011;11544;42.020;23.094;2023-06-14T01:12:11;9.70;;;6.15;;
22754;SDS011;11544;42.020;23.094;2023-06-14T01:14:59;7.68;;;6.15;;
22754;SDS011;11544;42.020;23.094;2023-06-14T01:17:27;10.30;;;6.57;;
22754;SDS011;11544;42.020;23.094;2023-06-14T01:19:58;8.70;;;6.57;;
22754;SDS011;11544;42.020;23.094;2023-06-14T01:22:27;8.02;;;6.28;;
22754;SDS011;11544;42.020;23.094;2023-06-14T01:24:55;12.63;;;7.35;;
22754;SDS011;11544;42.020;23.094;2023-06-14T01:27:24;10.05;;;7.07;;
22754;SDS011;11544;42.020;23.094;2023-06-14T01:29:58;15.02;;;6.97;;
22754;SDS011;11544;42.020;23.094;2023-06-14T01:32:31;12.57;;;7.15;;
22754;SDS011;11544;42.020;23.094;2023-06-14T01:34:59;8.73;;;6.35;;
22754;SDS011;11544;42.020;23.094;2023-06-14T01:37:26;11.45;;;7.03;;
22754;SDS011;11544;42.020;23.094;2023-06-14T01:39:53;7.65;;;6.50;;
22754;SDS011;11544;42.020;23.094;2023-06-14T01:42:21;10.90;;;6.78;;
22754;SDS011;11544;42.020;23.094;2023-06-14T01:44:49;13.55;;;7.20;;
22754;SDS011;11544;42.020;23.094;2023-06-14T01:47:18;9.38;;;6.22;;
22754;SDS011;11544;42.020;23.094;2023-06-14T01:49:46;11.13;;;6.25;;
22754;SDS011;11544;42.020;23.094;2023-06-14T01:52:30;9.43;;;6.63;;
22754;SDS011;11544;42.020;23.094;2023-06-14T01:54:57;11.18;;;6.50;;
22754;SDS011;11544;42.020;23.094;2023-06-14T01:57:25;6.93;;;6.03;;
22754;SDS011;11544;42.020;23.094;2023-06-14T01:59:53;9.80;;;6.78;;
22754;SDS011;11544;42.020;23.094;2023-06-14T02:02:20;11.38;;;6.63;;
22754;SDS011;11544;42.020;23.094;2023-06-14T02:04:47;8.48;;;6.40;;
22754;SDS011;11544;42.020;23.094;2023-06-14T02:07:14;8.60;;;5.93;;
22754;SDS011;11544;42.020;23.094;2023-06-14T02:09:41;7.63;;;4.97;;
22754;SDS011;11544;42.020;23.094;2023-06-14T02:12:08;8.40;;;6.13;;
22754;SDS011;11544;42.020;23.094;2023-06-14T02:14:35;8.02;;;5.93;;
22754;SDS011;11544;42.020;23.094;2023-06-14T02:17:02;6.90;;;5.85;;
22754;SDS011;11544;42.020;23.094;2023-06-14T02:19:29;8.20;;;6.10;;
22754;SDS011;11544;42.020;23.094;2023-06-14T02:21:56;7.13;;;5.15;;
22754;SDS011;11544;42.020;23.094;2023-06-14T02:24:23;7.40;;;4.90;;
22754;SDS011;11544;42.020;23.094;2023-06-14T02:26:50;7.45;;;5.75;;
22754;SDS011;11544;42.020;23.094;2023-06-14T02:29:17;6.45;;;5.40;;
22754;SDS011;11544;42.020;23.094;2023-06-14T02:31:44;13.73;;;5.88;;
22754;SDS011;11544;42.020;23.094;2023-06-14T02:34:13;7.47;;;4.97;;
22754;SDS011;11544;42.020;23.094;2023-06-14T02:36:40;10.18;;;5.40;;
22754;SDS011;11544;42.020;23.094;2023-06-14T02:39:08;11.65;;;5.30;;
22754;SDS011;11544;42.020;23.094;2023-06-14T02:41:37;6.97;;;5.93;;
22754;SDS011;11544;42.020;23.094;2023-06-14T02:44:03;10.77;;;5.60;;
22754;SDS011;11544;42.020;23.094;2023-06-14T02:46:31;10.02;;;6.25;;
22754;SDS011;11544;42.020;23.094;2023-06-14T02:48:58;8.93;;;5.63;;
22754;SDS011;11544;42.020;23.094;2023-06-14T02:51:25;7.47;;;6.05;;
22754;SDS011;11544;42.020;23.094;2023-06-14T02:53:52;10.43;;;6.65;;
22754;SDS011;11544;42.020;23.094;2023-06-14T02:56:19;7.18;;;5.55;;
22754;SDS011;11544;42.020;23.094;2023-06-14T02:58:46;7.38;;;6.22;;
22754;SDS011;11544;42.020;23.094;2023-06-14T03:01:15;9.55;;;6.30;;
22754;SDS011;11544;42.020;23.094;2023-06-14T03:03:43;9.75;;;5.78;;
22754;SDS011;11544;42.020;23.094;2023-06-14T03:06:10;7.97;;;5.40;;
22754;SDS011;11544;42.020;23.094;2023-06-14T03:08:40;6.47;;;5.55;;
22754;SDS011;11544;42.020;23.094;2023-06-14T03:11:08;7.22;;;5.50;;
22754;SDS011;11544;42.020;23.094;2023-06-14T03:13:38;7.72;;;5.82;;
22754;SDS011;11544;42.020;23.094;2023-06-14T03:16:05;7.05;;;5.70;;
22754;SDS011;11544;42.020;23.094;2023-06-14T03:18:33;6.88;;;5.28;;
22754;SDS011;11544;42.020;23.094;2023-06-14T03:21:02;7.13;;;5.30;;
22754;SDS011;11544;42.020;23.094;2023-06-14T03:23:29;7.05;;;5.57;;
22754;SDS011;11544;42.020;23.094;2023-06-14T03:25:56;10.93;;;6.07;;
22754;SDS011;11544;42.020;23.094;2023-06-14T03:28:23;8.32;;;5.65;;
22754;SDS011;11544;42.020;23.094;2023-06-14T03:30:50;6.55;;;5.35;;
22754;SDS011;11544;42.020;23.094;2023-06-14T03:33:18;8.60;;;5.50;;
22754;SDS011;11544;42.020;23.094;2023-06-14T03:35:44;8.30;;;6.05;;
22754;SDS011;11544;42.020;23.094;2023-06-14T03:38:11;6.93;;;5.63;;
22754;SDS011;11544;42.020;23.094;2023-06-14T03:40:38;7.55;;;5.95;;
22754;SDS011;11544;42.020;23.094;2023-06-14T03:43:05;10.65;;;6.28;;
22754;SDS011;11544;42.020;23.094;2023-06-14T03:45:32;12.38;;;6.43;;
22754;SDS011;11544;42.020;23.094;2023-06-14T03:48:00;7.65;;;6.40;;
22754;SDS011;11544;42.020;23.094;2023-06-14T03:50:27;8.88;;;6.20;;
22754;SDS011;11544;42.020;23.094;2023-06-14T03:52:54;10.30;;;6.50;;
22754;SDS011;11544;42.020;23.094;2023-06-14T03:55:22;14.85;;;10.18;;
22754;SDS011;11544;42.020;23.094;2023-06-14T03:57:54;10.50;;;6.88;;
22754;SDS011;11544;42.020;23.094;2023-06-14T04:00:21;11.63;;;6.97;;
22754;SDS011;11544;42.020;23.094;2023-06-14T04:02:48;9.30;;;6.47;;
22754;SDS011;11544;42.020;23.094;2023-06-14T04:05:15;8.30;;;5.90;;
22754;SDS011;11544;42.020;23.094;2023-06-14T04:07:43;11.73;;;5.60;;
22754;SDS011;11544;42.020;23.094;2023-06-14T04:10:12;11.00;;;6.30;;
22754;SDS011;11544;42.020;23.094;2023-06-14T04:12:40;9.40;;;6.38;;
22754;SDS011;11544;42.020;23.094;2023-06-14T04:15:10;9.80;;;6.63;;
22754;SDS011;11544;42.020;23.094;2023-06-14T04:17:47;11.73;;;6.20;;
22754;SDS011;11544;42.020;23.094;2023-06-14T04:20:15;9.65;;;6.05;;
22754;SDS011;11544;42.020;23.094;2023-06-14T04:22:43;10.15;;;6.57;;
22754;SDS011;11544;42.020;23.094;2023-06-14T04:25:10;8.73;;;5.80;;
22754;SDS011;11544;42.020;23.094;2023-06-14T04:27:38;7.50;;;5.63;;
22754;SDS011;11544;42.020;23.094;2023-06-14T04:30:06;8.82;;;5.65;;
22754;SDS011;11544;42.020;23.094;2023-06-14T04:32:34;5.70;;;5.05;;
22754;SDS011;11544;42.020;23.094;2023-06-14T04:35:06;8.68;;;5.70;;
22754;SDS011;11544;42.020;23.094;2023-06-14T04:37:33;9.63;;;5.80;;
22754;SDS011;11544;42.020;23.094;2023-06-14T04:40:01;9.45;;;5.68;;
22754;SDS011;11544;42.020;23.094;2023-06-14T04:42:31;7.20;;;6.07;;
22754;SDS011;11544;42.020;23.094;2023-06-14T04:44:58;11.40;;;5.88;;
22754;SDS011;11544;42.020;23.094;2023-06-14T04:50:21;7.20;;;6.00;;
22754;SDS011;11544;42.020;23.094;2023-06-14T04:52:47;6.30;;;5.55;;
22754;SDS011;11544;42.020;23.094;2023-06-14T04:55:17;6.50;;;4.78;;
22754;SDS011;11544;42.020;23.094;2023-06-14T04:57:45;9.80;;;4.57;;
22754;SDS011;11544;42.020;23.094;2023-06-14T05:00:12;9.20;;;5.53;;
22754;SDS011;11544;42.020;23.094;2023-06-14T05:02:40;9.07;;;5.68;;
22754;SDS011;11544;42.020;23.094;2023-06-14T05:05:07;9.75;;;5.80;;
22754;SDS011;11544;42.020;23.094;2023-06-14T05:07:35;11.20;;;6.22;;
22754;SDS011;11544;42.020;23.094;2023-06-14T05:10:05;12.10;;;6.13;;
22754;SDS011;11544;42.020;23.094;2023-06-14T05:12:33;12.48;;;6.55;;
22754;SDS011;11544;42.020;23.094;2023-06-14T05:15:00;9.32;;;6.43;;
22754;SDS011;11544;42.020;23.094;2023-06-14T05:17:27;10.18;;;6.18;;
22754;SDS011;11544;42.020;23.094;2023-06-14T05:19:54;8.77;;;6.60;;
22754;SDS011;11544;42.020;23.094;2023-06-14T05:22:22;10.20;;;6.35;;
22754;SDS011;11544;42.020;23.094;2023-06-14T05:24:49;10.25;;;6.55;;
22754;SDS011;11544;42.020;23.094;2023-06-14T05:27:16;8.38;;;6.60;;
22754;SDS011;11544;42.020;23.094;2023-06-14T05:29:43;9.10;;;6.18;;
22754;SDS011;11544;42.020;23.094;2023-06-14T05:32:10;9.70;;;6.13;;
22754;SDS011;11544;42.020;23.094;2023-06-14T05:34:37;11.80;;;6.50;;
22754;SDS011;11544;42.020;23.094;2023-06-14T05:37:04;9.18;;;6.35;;
22754;SDS011;11544;42.020;23.094;2023-06-14T05:39:31;7.97;;;6.05;;
22754;SDS011;11544;42.020;23.094;2023-06-14T05:41:58;7.10;;;5.20;;
22754;SDS011;11544;42.020;23.094;2023-06-14T05:44:25;6.13;;;4.78;;
22754;SDS011;11544;42.020;23.094;2023-06-14T05:46:51;7.50;;;6.20;;
22754;SDS011;11544;42.020;23.094;2023-06-14T05:49:18;6.43;;;4.70;;
22754;SDS011;11544;42.020;23.094;2023-06-14T05:51:45;7.70;;;4.97;;
22754;SDS011;11544;42.020;23.094;2023-06-14T05:54:12;7.68;;;4.50;;
22754;SDS011;11544;42.020;23.094;2023-06-14T05:56:39;5.72;;;4.82;;
22754;SDS011;11544;42.020;23.094;2023-06-14T05:59:06;5.90;;;4.35;;
22754;SDS011;11544;42.020;23.094;2023-06-14T06:01:33;8.90;;;5.10;;
22754;SDS011;11544;42.020;23.094;2023-06-14T06:04:03;4.60;;;3.50;;
22754;SDS011;11544;42.020;23.094;2023-06-14T06:06:30;8.00;;;3.83;;
22754;SDS011;11544;42.020;23.094;2023-06-14T06:08:57;4.68;;;4.03;;
22754;SDS011;11544;42.020;23.094;2023-06-14T06:11:24;7.63;;;3.63;;
22754;SDS011;11544;42.020;23.094;2023-06-14T06:13:53;7.10;;;3.30;;
22754;SDS011;11544;42.020;23.094;2023-06-14T06:16:19;6.78;;;4.70;;
22754;SDS011;11544;42.020;23.094;2023-06-14T06:18:46;3.40;;;3.05;;
22754;SDS011;11544;42.020;23.094;2023-06-14T06:21:13;4.60;;;3.13;;
22754;SDS011;11544;42.020;23.094;2023-06-14T06:23:40;3.65;;;3.08;;
22754;SDS011;11544;42.020;23.094;2023-06-14T06:26:08;6.40;;;2.97;;
22754;SDS011;11544;42.020;23.094;2023-06-14T06:28:35;7.82;;;3.40;;
22754;SDS011;11544;42.020;23.094;2023-06-14T06:31:02;7.93;;;3.40;;
22754;SDS011;11544;42.020;23.094;2023-06-14T06:33:30;6.63;;;4.20;;
22754;SDS011;11544;42.020;23.094;2023-06-14T06:35:57;7.43;;;3.67;;
22754;SDS011;11544;42.020;23.094;2023-06-14T06:38:24;5.97;;;4.40;;
22754;SDS011;11544;42.020;23.094;2023-06-14T06:40:51;6.75;;;4.30;;
22754;SDS011;11544;42.020;23.094;2023-06-14T06:43:20;7.10;;;4.03;;
22754;SDS011;11544;42.020;23.094;2023-06-14T06:45:47;7.43;;;4.32;;
22754;SDS011;11544;42.020;23.094;2023-06-14T06:48:14;12.68;;;5.20;;
22754;SDS011;11544;42.020;23.094;2023-06-14T06:50:42;6.68;;;5.05;;
22754;SDS011;11544;42.020;23.094;2023-06-14T06:53:09;8.15;;;5.10;;
22754;SDS011;11544;42.020;23.094;2023-06-14T06:55:36;8.07;;;5.53;;
22754;SDS011;11544;42.020;23.094;2023-06-14T06:58:03;9.15;;;5.75;;
22754;SDS011;11544;42.020;23.094;2023-06-14T07:00:32;7.35;;;5.90;;
22754;SDS011;11544;42.020;23.094;2023-06-14T07:02:58;9.13;;;6.38;;
22754;SDS011;11544;42.020;23.094;2023-06-14T07:05:25;9.13;;;6.35;;
22754;SDS011;11544;42.020;23.094;2023-06-14T07:07:52;10.80;;;7.45;;
22754;SDS011;11544;42.020;23.094;2023-06-14T07:10:23;11.52;;;8.43;;
22754;SDS011;11544;42.020;23.094;2023-06-14T07:12:52;11.98;;;8.35;;
22754;SDS011;11544;42.020;23.094;2023-06-14T07:15:28;15.35;;;11.00;;
22754;SDS011;11544;42.020;23.094;2023-06-14T07:17:54;15.30;;;9.73;;
22754;SDS011;11544;42.020;23.094;2023-06-14T07:20:26;17.73;;;13.70;;
22754;SDS011;11544;42.020;23.094;2023-06-14T07:22:53;15.00;;;11.07;;
22754;SDS011;11544;42.020;23.094;2023-06-14T07:25:19;17.85;;;10.75;;
22754;SDS011;11544;42.020;23.094;2023-06-14T07:27:46;13.13;;;9.55;;
22754;SDS011;11544;42.020;23.094;2023-06-14T07:30:14;13.93;;;10.27;;
22754;SDS011;11544;42.020;23.094;2023-06-14T07:32:41;12.45;;;9.77;;
22754;SDS011;11544;42.020;23.094;2023-06-14T07:35:08;14.30;;;11.15;;
22754;SDS011;11544;42.020;23.094;2023-06-14T07:37:35;12.15;;;9.40;;
22754;SDS011;11544;42.020;23.094;2023-06-14T07:40:02;16.85;;;10.50;;
22754;SDS011;11544;42.020;23.094;2023-06-14T07:42:34;13.07;;;8.75;;
22754;SDS011;11544;42.020;23.094;2023-06-14T07:45:02;12.05;;;9.60;;
22754;SDS011;11544;42.020;23.094;2023-06-14T07:47:30;12.15;;;8.80;;
22754;SDS011;11544;42.020;23.094;2023-06-14T07:49:57;13.32;;;10.30;;
22754;SDS011;11544;42.020;23.094;2023-06-14T07:52:24;12.27;;;10.13;;
22754;SDS011;11544;42.020;23.094;2023-06-14T07:54:51;17.27;;;10.10;;
22754;SDS011;11544;42.020;23.094;2023-06-14T07:57:18;13.82;;;9.38;;
22754;SDS011;11544;42.020;23.094;2023-06-14T07:59:46;13.68;;;9.40;;
22754;SDS011;11544;42.020;23.094;2023-06-14T08:02:13;15.27;;;9.75;;
22754;SDS011;11544;42.020;23.094;2023-06-14T08:04:41;14.80;;;8.27;;
22754;SDS011;11544;42.020;23.094;2023-06-14T08:07:08;10.27;;;8.85;;
22754;SDS011;11544;42.020;23.094;2023-06-14T08:09:35;11.43;;;8.27;;
22754;SDS011;11544;42.020;23.094;2023-06-14T08:12:05;10.07;;;8.05;;
22754;SDS011;11544;42.020;23.094;2023-06-14T08:14:36;12.75;;;9.02;;
22754;SDS011;11544;42.020;23.094;2023-06-14T08:17:04;12.90;;;8.38;;
22754;SDS011;11544;42.020;23.094;2023-06-14T08:19:31;11.70;;;8.65;;
22754;SDS011;11544;42.020;23.094;2023-06-14T08:21:58;13.15;;;8.85;;
22754;SDS011;11544;42.020;23.094;2023-06-14T08:24:25;9.15;;;7.97;;
22754;SDS011;11544;42.020;23.094;2023-06-14T08:26:53;15.35;;;10.52;;
22754;SDS011;11544;42.020;23.094;2023-06-14T08:29:20;13.20;;;9.13;;
22754;SDS011;11544;42.020;23.094;2023-06-14T08:31:47;10.32;;;8.23;;
22754;SDS011;11544;42.020;23.094;2023-06-14T08:34:14;11.32;;;9.23;;
22754;SDS011;11544;42.020;23.094;2023-06-14T08:36:41;9.55;;;8.38;;
22754;SDS011;11544;42.020;23.094;2023-06-14T08:39:08;13.90;;;8.82;;
22754;SDS011;11544;42.020;23.094;2023-06-14T08:41:35;9.25;;;8.10;;
22754;SDS011;11544;42.020;23.094;2023-06-14T08:44:02;10.48;;;8.35;;
22754;SDS011;11544;42.020;23.094;2023-06-14T08:46:30;13.13;;;7.82;;
22754;SDS011;11544;42.020;23.094;2023-06-14T08:49:01;11.88;;;8.50;;
22754;SDS011;11544;42.020;23.094;2023-06-14T08:51:31;11.98;;;8.52;;
22754;SDS011;11544;42.020;23.094;2023-06-14T08:54:03;9.32;;;8.32;;
22754;SDS011;11544;42.020;23.094;2023-06-14T08:56:31;10.23;;;7.78;;
22754;SDS011;11544;42.020;23.094;2023-06-14T08:59:00;11.10;;;7.25;;
22754;SDS011;11544;42.020;23.094;2023-06-14T09:01:36;8.85;;;7.30;;
22754;SDS011;11544;42.020;23.094;2023-06-14T09:04:04;7.85;;;6.25;;
22754;SDS011;11544;42.020;23.094;2023-06-14T09:06:34;16.50;;;11.20;;
22754;SDS011;11544;42.020;23.094;2023-06-14T09:09:03;9.52;;;7.78;;
22754;SDS011;11544;42.020;23.094;2023-06-14T09:11:30;9.02;;;6.57;;
22754;SDS011;11544;42.020;23.094;2023-06-14T09:13:57;11.02;;;8.98;;
22754;SDS011;11544;42.020;23.094;2023-06-14T09:16:25;12.32;;;8.55;;
22754;SDS011;11544;42.020;23.094;2023-06-14T09:18:53;8.73;;;7.53;;
22754;SDS011;11544;42.020;23.094;2023-06-14T09:21:20;11.65;;;8.48;;
22754;SDS011;11544;42.020;23.094;2023-06-14T09:23:48;10.93;;;9.43;;
22754;SDS011;11544;42.020;23.094;2023-06-14T09:26:15;10.63;;;9.20;;
22754;SDS011;11544;42.020;23.094;2023-06-14T09:28:47;9.98;;;7.60;;
22754;SDS011;11544;42.020;23.094;2023-06-14T09:31:16;11.40;;;8.00;;
22754;SDS011;11544;42.020;23.094;2023-06-14T09:33:44;9.43;;;7.63;;
22754;SDS011;11544;42.020;23.094;2023-06-14T09:36:15;8.23;;;6.38;;
22754;SDS011;11544;42.020;23.094;2023-06-14T09:38:56;10.25;;;7.28;;
22754;SDS011;11544;42.020;23.094;2023-06-14T09:41:30;11.30;;;9.57;;
22754;SDS011;11544;42.020;23.094;2023-06-14T09:44:02;6.55;;;5.90;;
22754;SDS011;11544;42.020;23.094;2023-06-14T09:46:36;7.55;;;6.57;;
22754;SDS011;11544;42.020;23.094;2023-06-14T09:49:05;8.30;;;6.97;;
22754;SDS011;11544;42.020;23.094;2023-06-14T09:51:32;8.43;;;6.88;;
22754;SDS011;11544;42.020;23.094;2023-06-14T09:54:02;6.75;;;6.07;;
22754;SDS011;11544;42.020;23.094;2023-06-14T09:59:04;6.70;;;6.00;;
22754;SDS011;11544;42.020;23.094;2023-06-14T10:01:34;9.65;;;6.30;;
22754;SDS011;11544;42.020;23.094;2023-06-14T10:04:03;6.78;;;5.97;;
22754;SDS011;11544;42.020;23.094;2023-06-14T10:06:37;9.55;;;6.25;;
22754;SDS011;11544;42.020;23.094;2023-06-14T10:09:07;7.40;;;5.60;;
22754;SDS011;11544;42.020;23.094;2023-06-14T10:11:36;7.10;;;6.40;;
22754;SDS011;11544;42.020;23.094;2023-06-14T10:14:05;8.25;;;6.60;;
22754;SDS011;11544;42.020;23.094;2023-06-14T10:16:34;8.20;;;7.07;;
22754;SDS011;11544;42.020;23.094;2023-06-14T10:19:27;8.48;;;6.65;;
22754;SDS011;11544;42.020;23.094;2023-06-14T10:24:46;9.93;;;7.82;;
22754;SDS011;11544;42.020;23.094;2023-06-14T10:27:14;12.90;;;9.25;;
22754;SDS011;11544;42.020;23.094;2023-06-14T10:32:23;9.57;;;8.52;;
22754;SDS011;11544;42.020;23.094;2023-06-14T10:35:01;13.20;;;8.27;;
22754;SDS011;11544;42.020;23.094;2023-06-14T10:37:32;12.77;;;8.43;;
22754;SDS011;11544;42.020;23.094;2023-06-14T10:40:00;10.52;;;8.55;;
22754;SDS011;11544;42.020;23.094;2023-06-14T10:42:32;12.35;;;8.57;;
22754;SDS011;11544;42.020;23.094;2023-06-14T10:45:00;10.65;;;8.77;;
22754;SDS011;11544;42.020;23.094;2023-06-14T10:47:28;13.40;;;9.07;;
22754;SDS011;11544;42.020;23.094;2023-06-14T10:52:29;10.30;;;8.45;;
22754;SDS011;11544;42.020;23.094;2023-06-14T10:57:39;10.38;;;8.50;;
22754;SDS011;11544;42.020;23.094;2023-06-14T11:00:13;10.02;;;8.07;;
22754;SDS011;11544;42.020;23.094;2023-06-14T11:11:05;8.52;;;7.72;;
22754;SDS011;11544;42.020;23.094;2023-06-14T11:13:33;8.95;;;7.35;;
22754;SDS011;11544;42.020;23.094;2023-06-14T11:16:03;10.85;;;8.23;;
22754;SDS011;11544;42.020;23.094;2023-06-14T11:18:37;9.73;;;8.00;;
22754;SDS011;11544;42.020;23.094;2023-06-14T11:21:04;8.38;;;7.18;;
22754;SDS011;11544;42.020;23.094;2023-06-14T11:23:31;9.93;;;7.43;;
22754;SDS011;11544;42.020;23.094;2023-06-14T11:25:58;7.68;;;6.93;;
22754;SDS011;11544;42.020;23.094;2023-06-14T11:28:34;9.75;;;8.23;;
22754;SDS011;11544;42.020;23.094;2023-06-14T11:31:03;8.65;;;7.07;;
22754;SDS011;11544;42.020;23.094;2023-06-14T11:33:30;7.88;;;7.00;;
22754;SDS011;11544;42.020;23.094;2023-06-14T11:35:57;7.53;;;6.72;;
22754;SDS011;11544;42.020;23.094;2023-06-14T11:38:25;8.15;;;7.25;;
22754;SDS011;11544;42.020;23.094;2023-06-14T11:40:52;8.38;;;6.95;;
22754;SDS011;11544;42.020;23.094;2023-06-14T11:43:19;9.60;;;7.05;;
22754;SDS011;11544;42.020;23.094;2023-06-14T11:45:49;11.93;;;7.70;;
22754;SDS011;11544;42.020;23.094;2023-06-14T11:48:37;13.00;;;7.55;;
22754;SDS011;11544;42.020;23.094;2023-06-14T11:51:07;8.70;;;7.10;;
22754;SDS011;11544;42.020;23.094;2023-06-14T11:53:34;9.18;;;8.23;;
22754;SDS011;11544;42.020;23.094;2023-06-14T11:56:02;9.90;;;7.60;;
22754;SDS011;11544;42.020;23.094;2023-06-14T11:58:29;7.85;;;7.05;;
22754;SDS011;11544;42.020;23.094;2023-06-14T12:00:56;9.35;;;7.47;;
22754;SDS011;11544;42.020;23.094;2023-06-14T12:03:24;8.88;;;7.97;;
22754;SDS011;11544;42.020;23.094;2023-06-14T12:06:06;8.30;;;5.93;;
22754;SDS011;11544;42.020;23.094;2023-06-14T12:08:38;4.82;;;4.38;;
22754;SDS011;11544;42.020;23.094;2023-06-14T12:11:13;7.68;;;5.07;;
22754;SDS011;11544;42.020;23.094;2023-06-14T12:13:42;10.13;;;4.35;;
22754;SDS011;11544;42.020;23.094;2023-06-14T12:16:10;4.35;;;3.95;;
22754;SDS011;11544;42.020;23.094;2023-06-14T12:18:39;5.68;;;3.70;;
22754;SDS011;11544;42.020;23.094;2023-06-14T12:21:08;4.07;;;3.08;;
22754;SDS011;11544;42.020;23.094;2023-06-14T12:23:46;3.83;;;3.38;;
22754;SDS011;11544;42.020;23.094;2023-06-14T12:26:15;5.65;;;3.13;;
22754;SDS011;11544;42.020;23.094;2023-06-14T12:28:44;3.97;;;3.30;;
22754;SDS011;11544;42.020;23.094;2023-06-14T12:31:12;3.65;;;2.85;;
22754;SDS011;11544;42.020;23.094;2023-06-14T12:33:40;7.82;;;3.53;;
22754;SDS011;11544;42.020;23.094;2023-06-14T12:36:08;4.47;;;3.00;;
22754;SDS011;11544;42.020;23.094;2023-06-14T12:38:36;7.78;;;3.28;;
22754;SDS011;11544;42.020;23.094;2023-06-14T12:41:04;3.38;;;3.13;;
22754;SDS011;11544;42.020;23.094;2023-06-14T12:43:31;3.83;;;3.53;;
22754;SDS011;11544;42.020;23.094;2023-06-14T12:45:58;4.28;;;3.63;;
22754;SDS011;11544;42.020;23.094;2023-06-14T12:48:25;4.00;;;3.70;;
22754;SDS011;11544;42.020;23.094;2023-06-14T12:50:57;5.47;;;3.60;;
22754;SDS011;11544;42.020;23.094;2023-06-14T12:53:24;4.60;;;3.63;;
22754;SDS011;11544;42.020;23.094;2023-06-14T12:55:51;4.13;;;3.25;;
22754;SDS011;11544;42.020;23.094;2023-06-14T12:58:18;5.88;;;3.85;;
22754;SDS011;11544;42.020;23.094;2023-06-14T13:00:46;4.22;;;3.33;;
22754;SDS011;11544;42.020;23.094;2023-06-14T13:03:16;3.45;;;2.92;;
22754;SDS011;11544;42.020;23.094;2023-06-14T13:05:43;4.63;;;3.47;;
22754;SDS011;11544;42.020;23.094;2023-06-14T13:08:10;7.13;;;3.88;;
22754;SDS011;11544;42.020;23.094;2023-06-14T13:10:37;3.88;;;3.47;;
22754;SDS011;11544;42.020;23.094;2023-06-14T13:13:04;4.78;;;3.03;;
22754;SDS011;11544;42.020;23.094;2023-06-14T13:15:31;3.75;;;3.40;;
22754;SDS011;11544;42.020;23.094;2023-06-14T13:17:58;5.07;;;4.13;;
22754;SDS011;11544;42.020;23.094;2023-06-14T13:20:25;4.30;;;3.90;;
22754;SDS011;11544;42.020;23.094;2023-06-14T13:22:52;4.47;;;4.07;;
22754;SDS011;11544;42.020;23.094;2023-06-14T13:25:19;4.63;;;3.58;;
22754;SDS011;11544;42.020;23.094;2023-06-14T13:27:46;3.33;;;3.03;;
22754;SDS011;11544;42.020;23.094;2023-06-14T13:30:13;4.00;;;3.47;;
22754;SDS011;11544;42.020;23.094;2023-06-14T13:32:41;3.60;;;3.30;;
22754;SDS011;11544;42.020;23.094;2023-06-14T13:35:08;2.83;;;2.63;;
22754;SDS011;11544;42.020;23.094;2023-06-14T13:37:35;3.08;;;2.78;;
22754;SDS011;11544;42.020;23.094;2023-06-14T13:40:02;4.85;;;2.30;;
22754;SDS011;11544;42.020;23.094;2023-06-14T13:42:29;2.47;;;2.28;;
22754;SDS011;11544;42.020;23.094;2023-06-14T13:44:58;4.82;;;2.83;;
22754;SDS011;11544;42.020;23.094;2023-06-14T13:47:25;3.35;;;3.05;;
22754;SDS011;11544;42.020;23.094;2023-06-14T13:49:52;4.50;;;3.08;;
22754;SDS011;11544;42.020;23.094;2023-06-14T13:52:19;4.47;;;3.42;;
22754;SDS011;11544;42.020;23.094;2023-06-14T13:54:47;3.80;;;3.30;;
22754;SDS011;11544;42.020;23.094;2023-06-14T13:57:16;3.95;;;3.30;;
22754;SDS011;11544;42.020;23.094;2023-06-14T13:59:43;5.22;;;3.17;;
22754;SDS011;11544;42.020;23.094;2023-06-14T14:02:12;3.83;;;3.40;;
22754;SDS011;11544;42.020;23.094;2023-06-14T14:04:42;4.50;;;4.00;;
22754;SDS011;11544;42.020;23.094;2023-06-14T14:07:09;5.97;;;4.10;;
22754;SDS011;11544;42.020;23.094;2023-06-14T14:09:36;5.88;;;4.30;;
22754;SDS011;11544;42.020;23.094;2023-06-14T14:12:04;6.60;;;4.50;;
22754;SDS011;11544;42.020;23.094;2023-06-14T14:14:32;4.65;;;3.83;;
22754;SDS011;11544;42.020;23.094;2023-06-14T14:16:59;4.30;;;3.90;;
22754;SDS011;11544;42.020;23.094;2023-06-14T14:19:26;4.35;;;3.95;;
22754;SDS011;11544;42.020;23.094;2023-06-14T14:21:53;4.25;;;3.55;;
22754;SDS011;11544;42.020;23.094;2023-06-14T14:24:20;7.28;;;4.50;;
22754;SDS011;11544;42.020;23.094;2023-06-14T14:26:47;3.90;;;3.50;;
22754;SDS011;11544;42.020;23.094;2023-06-14T14:29:16;4.63;;;3.22;;
22754;SDS011;11544;42.020;23.094;2023-06-14T14:31:43;3.38;;;2.80;;
22754;SDS011;11544;42.020;23.094;2023-06-14T14:34:10;4.00;;;3.30;;
22754;SDS011;11544;42.020;23.094;2023-06-14T14:36:37;3.03;;;2.60;;
22754;SDS011;11544;42.020;23.094;2023-06-14T14:39:08;2.80;;;2.60;;
22754;SDS011;11544;42.020;23.094;2023-06-14T14:41:42;5.88;;;2.75;;
22754;SDS011;11544;42.020;23.094;2023-06-14T14:44:09;4.30;;;2.70;;
22754;SDS011;11544;42.020;23.094;2023-06-14T14:46:36;5.25;;;2.60;;
22754;SDS011;11544;42.020;23.094;2023-06-14T14:49:04;5.88;;;2.95;;
22754;SDS011;11544;42.020;23.094;2023-06-14T14:51:31;2.72;;;2.50;;
22754;SDS011;11544;42.020;23.094;2023-06-14T14:53:58;2.60;;;2.40;;
22754;SDS011;11544;42.020;23.094;2023-06-14T14:56:25;5.28;;;3.08;;
22754;SDS011;11544;42.020;23.094;2023-06-14T14:58:52;2.50;;;2.25;;
22754;SDS011;11544;42.020;23.094;2023-06-14T15:01:19;3.80;;;2.60;;
22754;SDS011;11544;42.020;23.094;2023-06-14T15:03:46;3.53;;;3.10;;
22754;SDS011;11544;42.020;23.094;2023-06-14T15:06:16;4.60;;;2.92;;